sensor_id;sensor_type;location;lat;lon;timestamp;P1;durP1;ratioP1;P2;durP2;ratioP2
59790;SDS011;47431;51.640;5.554;2022-07-09T00:02:21;22.42;;;15.35;;
59790;SDS011;47431;51.640;5.554;2022-07-09T00:04:46;22.30;;;15.38;;
59790;SDS011;47431;51.640;5.554;2022-07-09T00:07:12;18.10;;;15.68;;
59790;SDS011;47431;51.640;5.554;2022-07-09T00:09:37;20.00;;;16.25;;
59790;SDS011;47431;51.640;5.554;2022-07-09T00:12:02;19.75;;;16.30;;
59790;SDS011;47431;51.640;5.554;2022-07-09T00:14:27;20.38;;;15.63;;
59790;SDS011;47431;51.640;5.554;2022-07-09T00:16:54;25.15;;;16.75;;
59790;SDS011;47431;51.640;5.554;2022-07-09T00:19:19;17.27;;;15.48;;
59790;SDS011;47431;51.640;5.554;2022-07-09T00:21:45;19.75;;;16.48;;
59790;SDS011;47431;51.640;5.554;2022-07-09T00:24:10;20.55;;;15.02;;
59790;SDS011;47431;51.640;5.554;2022-07-09T00:26:35;24.63;;;17.73;;
59790;SDS011;47431;51.640;5.554;2022-07-09T00:29:00;18.75;;;16.67;;
59790;SDS011;47431;51.640;5.554;2022-07-09T00:31:25;20.48;;;16.85;;
59790;SDS011;47431;51.640;5.554;2022-07-09T00:33:50;21.13;;;17.05;;
59790;SDS011;47431;51.640;5.554;2022-07-09T00:36:16;26.92;;;16.17;;
59790;SDS011;47431;51.640;5.554;2022-07-09T00:38:41;22.70;;;18.00;;
59790;SDS011;47431;51.640;5.554;2022-07-09T00:41:06;20.33;;;16.42;;
59790;SDS011;47431;51.640;5.554;2022-07-09T00:43:31;20.85;;;15.60;;
59790;SDS011;47431;51.640;5.554;2022-07-09T00:45:56;21.75;;;15.93;;
59790;SDS011;47431;51.640;5.554;2022-07-09T00:48:23;19.48;;;17.30;;
59790;SDS011;47431;51.640;5.554;2022-07-09T00:50:48;22.85;;;17.63;;
59790;SDS011;47431;51.640;5.554;2022-07-09T00:53:14;20.27;;;16.65;;
59790;SDS011;47431;51.640;5.554;2022-07-09T00:55:40;18.25;;;15.77;;
59790;SDS011;47431;51.640;5.554;2022-07-09T00:58:06;18.35;;;16.40;;
59790;SDS011;47431;51.640;5.554;2022-07-09T01:00:33;19.77;;;16.02;;
59790;SDS011;47431;51.640;5.554;2022-07-09T01:02:58;20.65;;;16.65;;
59790;SDS011;47431;51.640;5.554;2022-07-09T01:05:24;22.55;;;16.38;;
59790;SDS011;47431;51.640;5.554;2022-07-09T01:07:49;22.63;;;15.70;;
59790;SDS011;47431;51.640;5.554;2022-07-09T01:10:14;19.98;;;16.13;;
59790;SDS011;47431;51.640;5.554;2022-07-09T01:12:39;21.00;;;15.93;;
59790;SDS011;47431;51.640;5.554;2022-07-09T01:15:05;22.27;;;15.57;;
59790;SDS011;47431;51.640;5.554;2022-07-09T01:17:39;23.23;;;15.20;;
59790;SDS011;47431;51.640;5.554;2022-07-09T01:20:05;23.45;;;16.33;;
59790;SDS011;47431;51.640;5.554;2022-07-09T01:22:30;18.15;;;15.05;;
59790;SDS011;47431;51.640;5.554;2022-07-09T01:24:55;23.35;;;17.50;;
59790;SDS011;47431;51.640;5.554;2022-07-09T01:27:21;21.83;;;15.68;;
59790;SDS011;47431;51.640;5.554;2022-07-09T01:29:46;23.20;;;16.48;;
59790;SDS011;47431;51.640;5.554;2022-07-09T01:32:14;20.30;;;17.00;;
59790;SDS011;47431;51.640;5.554;2022-07-09T01:34:40;19.67;;;16.55;;
59790;SDS011;47431;51.640;5.554;2022-07-09T01:37:05;24.92;;;17.27;;
59790;SDS011;47431;51.640;5.554;2022-07-09T01:39:31;22.00;;;17.90;;
59790;SDS011;47431;51.640;5.554;2022-07-09T01:41:56;19.00;;;17.00;;
59790;SDS011;47431;51.640;5.554;2022-07-09T01:44:21;20.90;;;16.58;;
59790;SDS011;47431;51.640;5.554;2022-07-09T01:46:46;22.85;;;17.42;;
59790;SDS011;47431;51.640;5.554;2022-07-09T01:49:12;24.05;;;16.58;;
59790;SDS011;47431;51.640;5.554;2022-07-09T01:51:37;18.85;;;14.60;;
59790;SDS011;47431;51.640;5.554;2022-07-09T01:54:02;22.75;;;17.33;;
59790;SDS011;47431;51.640;5.554;2022-07-09T01:56:27;20.75;;;15.65;;
59790;SDS011;47431;51.640;5.554;2022-07-09T01:58:52;20.17;;;16.25;;
59790;SDS011;47431;51.640;5.554;2022-07-09T02:01:18;19.50;;;15.32;;
59790;SDS011;47431;51.640;5.554;2022-07-09T02:03:43;17.83;;;14.90;;
59790;SDS011;47431;51.640;5.554;2022-07-09T02:06:08;18.95;;;15.85;;
59790;SDS011;47431;51.640;5.554;2022-07-09T02:08:33;19.02;;;16.00;;
59790;SDS011;47431;51.640;5.554;2022-07-09T02:10:59;21.17;;;16.90;;
59790;SDS011;47431;51.640;5.554;2022-07-09T02:13:24;23.63;;;17.83;;
59790;SDS011;47431;51.640;5.554;2022-07-09T02:15:49;22.38;;;16.65;;
59790;SDS011;47431;51.640;5.554;2022-07-09T02:18:14;20.50;;;17.08;;
59790;SDS011;47431;51.640;5.554;2022-07-09T02:20:40;25.52;;;17.63;;
59790;SDS011;47431;51.640;5.554;2022-07-09T02:23:05;20.95;;;16.67;;
59790;SDS011;47431;51.640;5.554;2022-07-09T02:25:31;27.95;;;18.17;;
59790;SDS011;47431;51.640;5.554;2022-07-09T02:27:56;28.02;;;17.48;;
59790;SDS011;47431;51.640;5.554;2022-07-09T02:30:21;28.05;;;17.50;;
59790;SDS011;47431;51.640;5.554;2022-07-09T02:32:46;27.65;;;19.73;;
59790;SDS011;47431;51.640;5.554;2022-07-09T02:35:11;24.20;;;19.58;;
59790;SDS011;47431;51.640;5.554;2022-07-09T02:37:37;25.70;;;19.30;;
59790;SDS011;47431;51.640;5.554;2022-07-09T02:40:02;22.17;;;17.52;;
59790;SDS011;47431;51.640;5.554;2022-07-09T02:42:27;25.25;;;18.15;;
59790;SDS011;47431;51.640;5.554;2022-07-09T02:44:52;22.77;;;18.77;;
59790;SDS011;47431;51.640;5.554;2022-07-09T02:47:17;34.67;;;20.17;;
59790;SDS011;47431;51.640;5.554;2022-07-09T02:49:43;32.03;;;20.00;;
59790;SDS011;47431;51.640;5.554;2022-07-09T02:52:08;35.60;;;20.52;;
59790;SDS011;47431;51.640;5.554;2022-07-09T02:54:33;27.08;;;19.70;;
59790;SDS011;47431;51.640;5.554;2022-07-09T02:57:01;26.38;;;21.02;;
59790;SDS011;47431;51.640;5.554;2022-07-09T02:59:26;25.08;;;18.30;;
59790;SDS011;47431;51.640;5.554;2022-07-09T03:01:51;24.83;;;19.80;;
59790;SDS011;47431;51.640;5.554;2022-07-09T03:04:17;23.88;;;19.48;;
59790;SDS011;47431;51.640;5.554;2022-07-09T03:06:42;22.55;;;17.58;;
59790;SDS011;47431;51.640;5.554;2022-07-09T03:09:08;20.08;;;15.23;;
59790;SDS011;47431;51.640;5.554;2022-07-09T03:11:33;23.55;;;17.10;;
59790;SDS011;47431;51.640;5.554;2022-07-09T03:13:58;26.63;;;19.58;;
59790;SDS011;47431;51.640;5.554;2022-07-09T03:16:23;24.02;;;17.60;;
59790;SDS011;47431;51.640;5.554;2022-07-09T03:18:49;22.63;;;18.33;;
59790;SDS011;47431;51.640;5.554;2022-07-09T03:21:14;25.70;;;18.20;;
59790;SDS011;47431;51.640;5.554;2022-07-09T03:23:39;26.17;;;19.17;;
59790;SDS011;47431;51.640;5.554;2022-07-09T03:26:04;24.65;;;18.30;;
59790;SDS011;47431;51.640;5.554;2022-07-09T03:28:30;27.75;;;20.05;;
59790;SDS011;47431;51.640;5.554;2022-07-09T03:30:55;27.60;;;20.35;;
59790;SDS011;47431;51.640;5.554;2022-07-09T03:33:21;28.85;;;20.33;;
59790;SDS011;47431;51.640;5.554;2022-07-09T03:35:46;28.52;;;19.40;;
59790;SDS011;47431;51.640;5.554;2022-07-09T03:38:11;21.73;;;16.55;;
59790;SDS011;47431;51.640;5.554;2022-07-09T03:40:36;12.25;;;9.82;;
59790;SDS011;47431;51.640;5.554;2022-07-09T03:43:02;16.88;;;11.38;;
59790;SDS011;47431;51.640;5.554;2022-07-09T03:45:27;17.05;;;13.07;;
59790;SDS011;47431;51.640;5.554;2022-07-09T03:47:52;20.75;;;14.82;;
59790;SDS011;47431;51.640;5.554;2022-07-09T03:50:17;17.50;;;13.80;;
59790;SDS011;47431;51.640;5.554;2022-07-09T03:52:42;20.52;;;15.15;;
59790;SDS011;47431;51.640;5.554;2022-07-09T03:55:08;22.13;;;16.92;;
59790;SDS011;47431;51.640;5.554;2022-07-09T03:57:33;25.42;;;20.65;;
59790;SDS011;47431;51.640;5.554;2022-07-09T03:59:58;26.42;;;20.73;;
59790;SDS011;47431;51.640;5.554;2022-07-09T04:02:23;28.15;;;20.38;;
59790;SDS011;47431;51.640;5.554;2022-07-09T04:04:49;34.88;;;22.65;;
59790;SDS011;47431;51.640;5.554;2022-07-09T04:07:14;27.42;;;20.42;;
59790;SDS011;47431;51.640;5.554;2022-07-09T04:09:39;25.60;;;20.02;;
59790;SDS011;47431;51.640;5.554;2022-07-09T04:12:04;32.40;;;23.35;;
59790;SDS011;47431;51.640;5.554;2022-07-09T04:14:30;28.30;;;22.08;;
59790;SDS011;47431;51.640;5.554;2022-07-09T04:16:55;30.77;;;23.17;;
59790;SDS011;47431;51.640;5.554;2022-07-09T04:19:20;35.67;;;23.38;;
59790;SDS011;47431;51.640;5.554;2022-07-09T04:21:45;35.20;;;21.70;;
59790;SDS011;47431;51.640;5.554;2022-07-09T04:24:10;30.95;;;20.13;;
59790;SDS011;47431;51.640;5.554;2022-07-09T04:26:36;22.42;;;18.55;;
59790;SDS011;47431;51.640;5.554;2022-07-09T04:29:01;25.10;;;18.95;;
59790;SDS011;47431;51.640;5.554;2022-07-09T04:31:26;30.55;;;18.70;;
59790;SDS011;47431;51.640;5.554;2022-07-09T04:33:51;22.67;;;17.83;;
59790;SDS011;47431;51.640;5.554;2022-07-09T04:36:17;20.80;;;17.58;;
59790;SDS011;47431;51.640;5.554;2022-07-09T04:38:42;21.70;;;16.98;;
59790;SDS011;47431;51.640;5.554;2022-07-09T04:41:07;27.13;;;17.05;;
59790;SDS011;47431;51.640;5.554;2022-07-09T04:43:32;21.52;;;18.48;;
59790;SDS011;47431;51.640;5.554;2022-07-09T04:45:58;23.80;;;18.48;;
59790;SDS011;47431;51.640;5.554;2022-07-09T04:48:24;27.42;;;17.27;;
59790;SDS011;47431;51.640;5.554;2022-07-09T04:50:49;25.35;;;20.50;;
59790;SDS011;47431;51.640;5.554;2022-07-09T04:53:14;28.08;;;21.17;;
59790;SDS011;47431;51.640;5.554;2022-07-09T04:55:39;27.33;;;23.48;;
59790;SDS011;47431;51.640;5.554;2022-07-09T04:58:04;28.75;;;24.52;;
59790;SDS011;47431;51.640;5.554;2022-07-09T05:00:30;31.52;;;25.92;;
59790;SDS011;47431;51.640;5.554;2022-07-09T05:02:55;32.17;;;26.40;;
59790;SDS011;47431;51.640;5.554;2022-07-09T05:05:20;34.72;;;26.88;;
59790;SDS011;47431;51.640;5.554;2022-07-09T05:07:50;41.83;;;28.77;;
59790;SDS011;47431;51.640;5.554;2022-07-09T05:10:15;42.60;;;27.98;;
59790;SDS011;47431;51.640;5.554;2022-07-09T05:12:41;36.63;;;28.17;;
59790;SDS011;47431;51.640;5.554;2022-07-09T05:15:07;38.05;;;27.23;;
59790;SDS011;47431;51.640;5.554;2022-07-09T05:17:33;30.90;;;26.48;;
59790;SDS011;47431;51.640;5.554;2022-07-09T05:19:59;33.95;;;26.83;;
59790;SDS011;47431;51.640;5.554;2022-07-09T05:22:24;40.03;;;27.33;;
59790;SDS011;47431;51.640;5.554;2022-07-09T05:24:49;39.70;;;26.90;;
59790;SDS011;47431;51.640;5.554;2022-07-09T05:27:15;34.75;;;27.80;;
59790;SDS011;47431;51.640;5.554;2022-07-09T05:29:40;40.40;;;29.08;;
59790;SDS011;47431;51.640;5.554;2022-07-09T05:32:05;40.95;;;30.65;;
59790;SDS011;47431;51.640;5.554;2022-07-09T05:34:30;40.13;;;29.60;;
59790;SDS011;47431;51.640;5.554;2022-07-09T05:36:56;35.13;;;29.67;;
59790;SDS011;47431;51.640;5.554;2022-07-09T05:39:21;38.83;;;29.52;;
59790;SDS011;47431;51.640;5.554;2022-07-09T05:41:46;37.72;;;27.85;;
59790;SDS011;47431;51.640;5.554;2022-07-09T05:44:12;34.70;;;27.88;;
59790;SDS011;47431;51.640;5.554;2022-07-09T05:46:37;37.05;;;28.10;;
59790;SDS011;47431;51.640;5.554;2022-07-09T05:49:02;38.72;;;28.75;;
59790;SDS011;47431;51.640;5.554;2022-07-09T05:51:28;34.70;;;27.67;;
59790;SDS011;47431;51.640;5.554;2022-07-09T05:53:53;36.47;;;26.50;;
59790;SDS011;47431;51.640;5.554;2022-07-09T05:56:18;38.20;;;27.85;;
59790;SDS011;47431;51.640;5.554;2022-07-09T05:58:43;36.78;;;28.63;;
59790;SDS011;47431;51.640;5.554;2022-07-09T06:01:08;39.42;;;26.75;;
59790;SDS011;47431;51.640;5.554;2022-07-09T06:03:34;39.45;;;27.25;;
59790;SDS011;47431;51.640;5.554;2022-07-09T06:05:59;38.08;;;27.20;;
59790;SDS011;47431;51.640;5.554;2022-07-09T06:08:24;41.35;;;27.90;;
59790;SDS011;47431;51.640;5.554;2022-07-09T06:10:50;30.42;;;26.75;;
59790;SDS011;47431;51.640;5.554;2022-07-09T06:13:16;35.88;;;27.75;;
59790;SDS011;47431;51.640;5.554;2022-07-09T06:15:41;38.13;;;27.35;;
59790;SDS011;47431;51.640;5.554;2022-07-09T06:18:06;33.53;;;26.37;;
59790;SDS011;47431;51.640;5.554;2022-07-09T06:20:32;38.78;;;28.10;;
59790;SDS011;47431;51.640;5.554;2022-07-09T06:22:57;30.17;;;26.02;;
59790;SDS011;47431;51.640;5.554;2022-07-09T06:25:22;39.60;;;28.17;;
59790;SDS011;47431;51.640;5.554;2022-07-09T06:27:48;31.10;;;26.45;;
59790;SDS011;47431;51.640;5.554;2022-07-09T06:30:13;33.55;;;26.30;;
59790;SDS011;47431;51.640;5.554;2022-07-09T06:32:38;35.42;;;26.83;;
59790;SDS011;47431;51.640;5.554;2022-07-09T06:35:04;30.17;;;25.85;;
59790;SDS011;47431;51.640;5.554;2022-07-09T06:37:29;32.90;;;26.83;;
59790;SDS011;47431;51.640;5.554;2022-07-09T06:39:54;31.00;;;26.35;;
59790;SDS011;47431;51.640;5.554;2022-07-09T06:42:21;33.55;;;27.25;;
59790;SDS011;47431;51.640;5.554;2022-07-09T06:44:47;32.63;;;25.98;;
59790;SDS011;47431;51.640;5.554;2022-07-09T06:47:12;31.73;;;24.48;;
59790;SDS011;47431;51.640;5.554;2022-07-09T06:49:37;35.13;;;27.52;;
59790;SDS011;47431;51.640;5.554;2022-07-09T06:52:03;38.70;;;26.42;;
59790;SDS011;47431;51.640;5.554;2022-07-09T06:54:28;30.40;;;25.38;;
59790;SDS011;47431;51.640;5.554;2022-07-09T06:56:53;37.55;;;26.65;;
59790;SDS011;47431;51.640;5.554;2022-07-09T06:59:19;34.72;;;27.00;;
59790;SDS011;47431;51.640;5.554;2022-07-09T07:01:44;34.50;;;26.90;;
59790;SDS011;47431;51.640;5.554;2022-07-09T07:04:09;31.83;;;26.30;;
59790;SDS011;47431;51.640;5.554;2022-07-09T07:06:37;36.40;;;28.00;;
59790;SDS011;47431;51.640;5.554;2022-07-09T07:09:02;31.52;;;25.10;;
59790;SDS011;47431;51.640;5.554;2022-07-09T07:11:27;30.27;;;23.92;;
59790;SDS011;47431;51.640;5.554;2022-07-09T07:13:52;28.47;;;25.00;;
59790;SDS011;47431;51.640;5.554;2022-07-09T07:16:17;29.30;;;24.47;;
59790;SDS011;47431;51.640;5.554;2022-07-09T07:18:43;29.53;;;24.20;;
59790;SDS011;47431;51.640;5.554;2022-07-09T07:21:08;27.03;;;24.20;;
59790;SDS011;47431;51.640;5.554;2022-07-09T07:23:33;31.75;;;25.80;;
59790;SDS011;47431;51.640;5.554;2022-07-09T07:25:59;23.70;;;21.13;;
59790;SDS011;47431;51.640;5.554;2022-07-09T07:28:24;26.02;;;19.75;;
59790;SDS011;47431;51.640;5.554;2022-07-09T07:30:49;21.77;;;17.20;;
59790;SDS011;47431;51.640;5.554;2022-07-09T07:33:15;22.95;;;17.10;;
59790;SDS011;47431;51.640;5.554;2022-07-09T07:35:40;21.55;;;16.90;;
59790;SDS011;47431;51.640;5.554;2022-07-09T07:38:05;27.87;;;16.47;;
59790;SDS011;47431;51.640;5.554;2022-07-09T07:40:30;18.67;;;15.93;;
59790;SDS011;47431;51.640;5.554;2022-07-09T07:42:56;19.38;;;16.02;;
59790;SDS011;47431;51.640;5.554;2022-07-09T07:45:21;23.42;;;17.38;;
59790;SDS011;47431;51.640;5.554;2022-07-09T07:47:46;19.95;;;16.33;;
59790;SDS011;47431;51.640;5.554;2022-07-09T07:50:11;20.63;;;16.58;;
59790;SDS011;47431;51.640;5.554;2022-07-09T07:52:37;24.35;;;17.17;;
59790;SDS011;47431;51.640;5.554;2022-07-09T07:55:02;22.80;;;16.52;;
59790;SDS011;47431;51.640;5.554;2022-07-09T07:57:27;21.42;;;17.38;;
59790;SDS011;47431;51.640;5.554;2022-07-09T07:59:53;25.30;;;17.15;;
59790;SDS011;47431;51.640;5.554;2022-07-09T08:02:18;19.77;;;17.10;;
59790;SDS011;47431;51.640;5.554;2022-07-09T08:04:43;22.43;;;16.70;;
59790;SDS011;47431;51.640;5.554;2022-07-09T08:07:08;24.60;;;17.42;;
59790;SDS011;47431;51.640;5.554;2022-07-09T08:09:34;24.60;;;18.17;;
59790;SDS011;47431;51.640;5.554;2022-07-09T08:11:59;23.40;;;16.57;;
59790;SDS011;47431;51.640;5.554;2022-07-09T08:14:24;20.90;;;15.57;;
59790;SDS011;47431;51.640;5.554;2022-07-09T08:16:50;18.75;;;15.90;;
59790;SDS011;47431;51.640;5.554;2022-07-09T08:19:15;16.20;;;14.50;;
59790;SDS011;47431;51.640;5.554;2022-07-09T08:21:41;16.67;;;14.88;;
59790;SDS011;47431;51.640;5.554;2022-07-09T08:24:06;19.52;;;16.42;;
59790;SDS011;47431;51.640;5.554;2022-07-09T08:26:31;19.85;;;16.90;;
59790;SDS011;47431;51.640;5.554;2022-07-09T08:28:56;23.90;;;15.75;;
59790;SDS011;47431;51.640;5.554;2022-07-09T08:31:22;22.25;;;17.02;;
59790;SDS011;47431;51.640;5.554;2022-07-09T08:33:47;20.40;;;15.73;;
59790;SDS011;47431;51.640;5.554;2022-07-09T08:36:13;17.17;;;13.73;;
59790;SDS011;47431;51.640;5.554;2022-07-09T08:38:38;26.35;;;17.45;;
59790;SDS011;47431;51.640;5.554;2022-07-09T08:41:03;20.33;;;16.73;;
59790;SDS011;47431;51.640;5.554;2022-07-09T08:43:31;21.55;;;15.15;;
59790;SDS011;47431;51.640;5.554;2022-07-09T08:45:57;22.45;;;15.63;;
59790;SDS011;47431;51.640;5.554;2022-07-09T08:48:22;29.55;;;15.27;;
59790;SDS011;47431;51.640;5.554;2022-07-09T08:50:48;15.00;;;13.23;;
59790;SDS011;47431;51.640;5.554;2022-07-09T08:53:13;17.40;;;12.68;;
59790;SDS011;47431;51.640;5.554;2022-07-09T08:55:41;16.92;;;15.10;;
59790;SDS011;47431;51.640;5.554;2022-07-09T08:58:06;22.23;;;14.90;;
59790;SDS011;47431;51.640;5.554;2022-07-09T09:00:32;35.30;;;17.27;;
59790;SDS011;47431;51.640;5.554;2022-07-09T09:02:57;24.53;;;15.03;;
59790;SDS011;47431;51.640;5.554;2022-07-09T09:05:22;18.67;;;12.17;;
59790;SDS011;47431;51.640;5.554;2022-07-09T09:07:47;16.33;;;12.00;;
59790;SDS011;47431;51.640;5.554;2022-07-09T09:10:26;15.70;;;11.82;;
59790;SDS011;47431;51.640;5.554;2022-07-09T09:12:58;16.58;;;12.80;;
59790;SDS011;47431;51.640;5.554;2022-07-09T09:15:23;16.42;;;13.52;;
59790;SDS011;47431;51.640;5.554;2022-07-09T09:17:49;17.65;;;14.75;;
59790;SDS011;47431;51.640;5.554;2022-07-09T09:20:14;20.10;;;13.40;;
59790;SDS011;47431;51.640;5.554;2022-07-09T09:25:20;17.75;;;13.57;;
59790;SDS011;47431;51.640;5.554;2022-07-09T09:27:49;21.27;;;14.23;;
59790;SDS011;47431;51.640;5.554;2022-07-09T09:30:15;20.30;;;13.27;;
59790;SDS011;47431;51.640;5.554;2022-07-09T09:32:40;17.00;;;14.32;;
59790;SDS011;47431;51.640;5.554;2022-07-09T09:35:05;20.80;;;14.67;;
59790;SDS011;47431;51.640;5.554;2022-07-09T09:37:31;19.42;;;13.48;;
59790;SDS011;47431;51.640;5.554;2022-07-09T09:39:56;17.08;;;12.95;;
59790;SDS011;47431;51.640;5.554;2022-07-09T09:42:23;17.67;;;12.93;;
59790;SDS011;47431;51.640;5.554;2022-07-09T09:44:50;18.75;;;16.77;;
59790;SDS011;47431;51.640;5.554;2022-07-09T09:47:15;18.02;;;16.15;;
59790;SDS011;47431;51.640;5.554;2022-07-09T09:49:43;18.00;;;16.20;;
59790;SDS011;47431;51.640;5.554;2022-07-09T09:52:09;27.67;;;17.05;;
59790;SDS011;47431;51.640;5.554;2022-07-09T09:54:35;22.73;;;17.95;;
59790;SDS011;47431;51.640;5.554;2022-07-09T09:57:07;25.20;;;19.98;;
59790;SDS011;47431;51.640;5.554;2022-07-09T09:59:36;19.20;;;17.23;;
59790;SDS011;47431;51.640;5.554;2022-07-09T10:02:02;23.45;;;18.10;;
59790;SDS011;47431;51.640;5.554;2022-07-09T10:04:29;24.13;;;17.60;;
59790;SDS011;47431;51.640;5.554;2022-07-09T10:06:54;20.07;;;16.93;;
59790;SDS011;47431;51.640;5.554;2022-07-09T10:09:19;20.90;;;17.23;;
59790;SDS011;47431;51.640;5.554;2022-07-09T10:11:46;22.73;;;17.13;;
59790;SDS011;47431;51.640;5.554;2022-07-09T10:14:31;20.95;;;15.52;;
59790;SDS011;47431;51.640;5.554;2022-07-09T10:16:56;17.00;;;15.25;;
59790;SDS011;47431;51.640;5.554;2022-07-09T10:19:33;18.70;;;15.27;;
59790;SDS011;47431;51.640;5.554;2022-07-09T10:21:58;15.80;;;13.18;;
59790;SDS011;47431;51.640;5.554;2022-07-09T10:24:27;16.90;;;14.23;;
59790;SDS011;47431;51.640;5.554;2022-07-09T10:27:01;24.13;;;14.30;;
59790;SDS011;47431;51.640;5.554;2022-07-09T10:29:27;19.52;;;12.35;;
59790;SDS011;47431;51.640;5.554;2022-07-09T10:31:53;15.10;;;13.50;;
59790;SDS011;47431;51.640;5.554;2022-07-09T10:37:02;19.15;;;13.90;;
59790;SDS011;47431;51.640;5.554;2022-07-09T10:39:28;16.40;;;13.60;;
59790;SDS011;47431;51.640;5.554;2022-07-09T10:46:56;11.80;;;7.88;;
59790;SDS011;47431;51.640;5.554;2022-07-09T10:49:22;10.63;;;7.55;;
59790;SDS011;47431;51.640;5.554;2022-07-09T10:51:47;8.48;;;6.68;;
59790;SDS011;47431;51.640;5.554;2022-07-09T10:54:16;15.10;;;7.75;;
59790;SDS011;47431;51.640;5.554;2022-07-09T10:56:41;9.13;;;6.57;;
59790;SDS011;47431;51.640;5.554;2022-07-09T10:59:06;10.55;;;6.32;;
59790;SDS011;47431;51.640;5.554;2022-07-09T11:01:32;12.03;;;5.23;;
59790;SDS011;47431;51.640;5.554;2022-07-09T11:03:57;6.82;;;4.38;;
59790;SDS011;47431;51.640;5.554;2022-07-09T11:06:23;9.05;;;5.55;;
59790;SDS011;47431;51.640;5.554;2022-07-09T11:08:48;8.57;;;5.40;;
59790;SDS011;47431;51.640;5.554;2022-07-09T11:11:20;10.27;;;5.55;;
59790;SDS011;47431;51.640;5.554;2022-07-09T11:16:10;11.15;;;5.63;;
59790;SDS011;47431;51.640;5.554;2022-07-09T11:18:35;6.20;;;3.42;;
59790;SDS011;47431;51.640;5.554;2022-07-09T11:21:00;7.73;;;4.07;;
59790;SDS011;47431;51.640;5.554;2022-07-09T11:23:25;6.63;;;4.33;;
59790;SDS011;47431;51.640;5.554;2022-07-09T11:25:51;7.25;;;3.47;;
59790;SDS011;47431;51.640;5.554;2022-07-09T11:28:20;6.67;;;2.50;;
59790;SDS011;47431;51.640;5.554;2022-07-09T11:30:45;7.78;;;2.58;;
59790;SDS011;47431;51.640;5.554;2022-07-09T11:33:13;6.22;;;2.60;;
59790;SDS011;47431;51.640;5.554;2022-07-09T11:35:38;6.93;;;1.65;;
59790;SDS011;47431;51.640;5.554;2022-07-09T11:38:04;7.07;;;2.30;;
59790;SDS011;47431;51.640;5.554;2022-07-09T11:40:32;7.60;;;2.70;;
59790;SDS011;47431;51.640;5.554;2022-07-09T11:42:57;5.68;;;2.35;;
59790;SDS011;47431;51.640;5.554;2022-07-09T11:45:23;6.22;;;2.40;;
59790;SDS011;47431;51.640;5.554;2022-07-09T11:47:49;7.88;;;1.92;;
59790;SDS011;47431;51.640;5.554;2022-07-09T11:50:15;5.68;;;1.98;;
59790;SDS011;47431;51.640;5.554;2022-07-09T11:52:47;5.45;;;2.00;;
59790;SDS011;47431;51.640;5.554;2022-07-09T11:55:14;9.35;;;1.95;;
59790;SDS011;47431;51.640;5.554;2022-07-09T11:57:49;6.53;;;2.15;;
59790;SDS011;47431;51.640;5.554;2022-07-09T12:00:39;7.32;;;2.08;;
59790;SDS011;47431;51.640;5.554;2022-07-09T12:03:00;5.15;;;1.63;;
59790;SDS011;47431;51.640;5.554;2022-07-09T12:05:30;4.45;;;1.52;;
59790;SDS011;47431;51.640;5.554;2022-07-09T12:07:56;6.18;;;1.40;;
59790;SDS011;47431;51.640;5.554;2022-07-09T12:10:31;5.38;;;2.10;;
59790;SDS011;47431;51.640;5.554;2022-07-09T12:12:57;4.70;;;1.55;;
59790;SDS011;47431;51.640;5.554;2022-07-09T12:15:23;5.00;;;1.35;;
59790;SDS011;47431;51.640;5.554;2022-07-09T12:17:51;5.72;;;1.80;;
59790;SDS011;47431;51.640;5.554;2022-07-09T12:20:17;4.03;;;1.58;;
59790;SDS011;47431;51.640;5.554;2022-07-09T12:22:42;3.80;;;1.20;;
59790;SDS011;47431;51.640;5.554;2022-07-09T12:25:07;3.83;;;1.30;;
59790;SDS011;47431;51.640;5.554;2022-07-09T12:27:33;4.03;;;1.15;;
59790;SDS011;47431;51.640;5.554;2022-07-09T12:29:58;2.28;;;1.00;;
59790;SDS011;47431;51.640;5.554;2022-07-09T12:32:23;5.93;;;1.17;;
59790;SDS011;47431;51.640;5.554;2022-07-09T12:34:48;3.37;;;1.30;;
59790;SDS011;47431;51.640;5.554;2022-07-09T12:37:14;3.28;;;1.20;;
59790;SDS011;47431;51.640;5.554;2022-07-09T12:39:39;5.43;;;1.40;;
59790;SDS011;47431;51.640;5.554;2022-07-09T12:42:04;4.93;;;1.13;;
59790;SDS011;47431;51.640;5.554;2022-07-09T12:44:29;5.03;;;1.10;;
59790;SDS011;47431;51.640;5.554;2022-07-09T12:46:55;6.55;;;1.05;;
59790;SDS011;47431;51.640;5.554;2022-07-09T12:49:20;3.63;;;0.97;;
59790;SDS011;47431;51.640;5.554;2022-07-09T12:51:45;3.13;;;1.17;;
59790;SDS011;47431;51.640;5.554;2022-07-09T12:54:10;2.67;;;1.00;;
59790;SDS011;47431;51.640;5.554;2022-07-09T12:56:35;3.30;;;1.00;;
59790;SDS011;47431;51.640;5.554;2022-07-09T12:59:01;7.13;;;1.48;;
59790;SDS011;47431;51.640;5.554;2022-07-09T13:01:26;3.92;;;1.27;;
59790;SDS011;47431;51.640;5.554;2022-07-09T13:03:51;5.40;;;1.13;;
59790;SDS011;47431;51.640;5.554;2022-07-09T13:06:18;4.75;;;1.15;;
59790;SDS011;47431;51.640;5.554;2022-07-09T13:08:56;3.22;;;1.17;;
59790;SDS011;47431;51.640;5.554;2022-07-09T13:11:21;6.03;;;1.40;;
59790;SDS011;47431;51.640;5.554;2022-07-09T13:13:46;8.47;;;1.33;;
59790;SDS011;47431;51.640;5.554;2022-07-09T13:16:11;9.75;;;1.58;;
59790;SDS011;47431;51.640;5.554;2022-07-09T13:18:37;5.68;;;1.70;;
59790;SDS011;47431;51.640;5.554;2022-07-09T13:21:02;4.40;;;1.57;;
59790;SDS011;47431;51.640;5.554;2022-07-09T13:23:27;3.95;;;1.15;;
59790;SDS011;47431;51.640;5.554;2022-07-09T13:25:52;4.97;;;1.10;;
59790;SDS011;47431;51.640;5.554;2022-07-09T13:28:17;4.70;;;1.43;;
59790;SDS011;47431;51.640;5.554;2022-07-09T13:30:42;4.17;;;1.40;;
59790;SDS011;47431;51.640;5.554;2022-07-09T13:33:08;4.28;;;1.10;;
59790;SDS011;47431;51.640;5.554;2022-07-09T13:35:33;4.00;;;1.10;;
59790;SDS011;47431;51.640;5.554;2022-07-09T13:37:58;3.05;;;1.13;;
59790;SDS011;47431;51.640;5.554;2022-07-09T13:40:23;12.00;;;1.20;;
59790;SDS011;47431;51.640;5.554;2022-07-09T13:42:48;4.50;;;1.23;;
59790;SDS011;47431;51.640;5.554;2022-07-09T13:45:14;6.55;;;1.48;;
59790;SDS011;47431;51.640;5.554;2022-07-09T13:47:39;5.17;;;1.30;;
59790;SDS011;47431;51.640;5.554;2022-07-09T13:50:04;8.43;;;1.23;;
59790;SDS011;47431;51.640;5.554;2022-07-09T13:52:30;4.18;;;1.10;;
59790;SDS011;47431;51.640;5.554;2022-07-09T13:54:55;3.17;;;1.10;;
59790;SDS011;47431;51.640;5.554;2022-07-09T13:57:20;5.47;;;1.47;;
59790;SDS011;47431;51.640;5.554;2022-07-09T13:59:45;7.03;;;2.07;;
59790;SDS011;47431;51.640;5.554;2022-07-09T14:02:10;3.33;;;1.10;;
59790;SDS011;47431;51.640;5.554;2022-07-09T14:04:36;7.78;;;1.08;;
59790;SDS011;47431;51.640;5.554;2022-07-09T14:07:01;5.60;;;1.40;;
59790;SDS011;47431;51.640;5.554;2022-07-09T14:09:26;4.20;;;1.10;;
59790;SDS011;47431;51.640;5.554;2022-07-09T14:11:51;5.43;;;1.20;;
59790;SDS011;47431;51.640;5.554;2022-07-09T14:14:17;6.50;;;1.45;;
59790;SDS011;47431;51.640;5.554;2022-07-09T14:16:42;8.77;;;1.87;;
59790;SDS011;47431;51.640;5.554;2022-07-09T14:19:07;8.50;;;2.03;;
59790;SDS011;47431;51.640;5.554;2022-07-09T14:21:32;6.67;;;1.60;;
59790;SDS011;47431;51.640;5.554;2022-07-09T14:23:57;6.77;;;1.97;;
59790;SDS011;47431;51.640;5.554;2022-07-09T14:26:23;11.27;;;2.40;;
59790;SDS011;47431;51.640;5.554;2022-07-09T14:28:48;5.90;;;2.15;;
59790;SDS011;47431;51.640;5.554;2022-07-09T14:31:14;5.63;;;1.98;;
59790;SDS011;47431;51.640;5.554;2022-07-09T14:33:39;7.60;;;2.47;;